createdAt,value
2023-05-18T00:04:28.097Z,99892.34
2023-05-18T00:09:31.914Z,99895.03
2023-05-18T00:14:34.990Z,99900.72
2023-05-18T00:19:40.704Z,99899.72
2023-05-18T00:24:43.658Z,99908.09
2023-05-18T00:29:46.609Z,99912.25
2023-05-18T00:34:50.995Z,99910.25
2023-05-18T00:39:53.919Z,99906.91
2023-05-18T00:44:57.023Z,99910.19
2023-05-18T00:50:01.401Z,99917.16
2023-05-18T00:55:04.785Z,99917.16
2023-05-18T01:00:10.872Z,99919.78
2023-05-18T01:05:18.014Z,99927.63
2023-05-18T01:10:21.470Z,99932.78
2023-05-18T01:15:32.993Z,99929.72
2023-05-18T01:20:45.888Z,99929.94
2023-05-18T01:25:54.783Z,99928.88
2023-05-18T01:31:00.001Z,99932.88
2023-05-18T01:36:02.964Z,99940.25
2023-05-18T01:41:19.753Z,99932.41
2023-05-18T01:46:34.730Z,99939.13
2023-05-18T01:51:42.847Z,99931.97
2023-05-18T01:56:47.694Z,99944.56
2023-05-18T02:01:52.269Z,99938.25
2023-05-18T02:07:02.720Z,99943.78
2023-05-18T02:12:07.434Z,99944.13
2023-05-18T02:17:11.782Z,99942.84
2023-05-18T02:22:14.704Z,99944.97
2023-05-18T02:27:17.654Z,99944.31
2023-05-18T02:32:21.938Z,99949.56
2023-05-18T02:37:24.970Z,99954.78
2023-05-18T02:42:27.929Z,99953.78
2023-05-18T02:47:32.491Z,99956.56
2023-05-18T02:52:35.537Z,99962.94
2023-05-18T02:57:39.202Z,99966.34
2023-05-18T03:02:48.414Z,99962.09
2023-05-18T03:07:52.301Z,99965.50
2023-05-18T03:12:57.044Z,99969.94
2023-05-18T03:18:01.439Z,99973.66
2023-05-18T03:23:05.545Z,99979.38
2023-05-18T03:28:09.477Z,99984.25
2023-05-18T03:33:14.406Z,99978.88
2023-05-18T03:38:17.758Z,99983.09
2023-05-18T03:43:26.272Z,99983.44
2023-05-18T03:48:31.875Z,99990.91
2023-05-18T03:53:36.387Z,99998.56
2023-05-18T03:58:39.345Z,99995.13
2023-05-18T04:03:43.899Z,99989.94
2023-05-18T04:08:47.265Z,100002.31
2023-05-18T04:13:50.891Z,100003.78
2023-05-18T04:18:55.291Z,100016.53
2023-05-18T04:23:59.724Z,100013.25
2023-05-18T04:29:02.752Z,100013.06
2023-05-18T04:34:09.007Z,100021.69
2023-05-18T04:39:12.560Z,100015.69
2023-05-18T04:44:15.774Z,100015.53
2023-05-18T04:49:22.199Z,100014.63
2023-05-18T04:54:25.414Z,100018.44
2023-05-18T04:59:28.978Z,100026.53
2023-05-18T05:04:33.388Z,100019.66
2023-05-18T05:09:36.430Z,100017.94
2023-05-18T05:14:39.430Z,100030.31
2023-05-18T05:19:43.981Z,100033.75
2023-05-18T05:24:47.036Z,100034.00
2023-05-18T05:29:51.128Z,100032.31
2023-05-18T05:34:55.526Z,100029.53
2023-05-18T05:39:59.387Z,100041.63
2023-05-18T05:45:03.262Z,100020.75
2023-05-18T05:50:11.522Z,100033.03
2023-05-18T05:55:14.997Z,100031.75
2023-05-18T06:00:18.685Z,100038.09
2023-05-18T06:05:25.959Z,100037.63
2023-05-18T06:10:31.171Z,100028.69
2023-05-18T06:15:34.597Z,100037.03
2023-05-18T06:20:40.267Z,100037.06
2023-05-18T06:25:43.440Z,100042.03
2023-05-18T06:31:09.508Z,100054.75
2023-05-18T06:36:23.815Z,100052.88
2023-05-18T06:41:26.862Z,100060.56
2023-05-18T06:46:29.975Z,100054.53
2023-05-18T06:51:38.029Z,100078.56
2023-05-18T06:56:42.060Z,100080.00
2023-05-18T07:01:45.699Z,100083.19
2023-05-18T07:06:53.660Z,100085.97
2023-05-18T07:11:56.607Z,100080.72
2023-05-18T07:16:59.533Z,100080.31
2023-05-18T07:22:04.582Z,100072.56
2023-05-18T07:27:07.545Z,100071.38
2023-05-18T07:32:10.474Z,100061.00
2023-05-18T07:37:14.981Z,100063.88
2023-05-18T07:42:17.928Z,100057.28
2023-05-18T07:47:21.635Z,100064.19
2023-05-18T07:52:26.194Z,100071.03
2023-05-18T07:57:30.630Z,100068.28
2023-05-18T08:02:34.483Z,100059.72
2023-05-18T08:07:39.334Z,100071.34
2023-05-18T08:12:42.285Z,100064.69
2023-05-18T08:17:46.180Z,100068.28
2023-05-18T08:22:50.521Z,100051.47
2023-05-18T08:27:54.327Z,100062.31
2023-05-18T08:32:57.582Z,100055.59
2023-05-18T08:38:04.861Z,100046.16
2023-05-18T08:43:13.954Z,100044.84
2023-05-18T08:48:17.633Z,100052.47
2023-05-18T08:53:25.668Z,100053.69
2023-05-18T08:58:35.506Z,100060.94
2023-05-18T09:03:39.555Z,100046.34
2023-05-18T09:08:45.544Z,100045.28
2023-05-18T09:13:50.582Z,100049.38
2023-05-18T09:18:53.921Z,100045.34
2023-05-18T09:23:58.356Z,100039.34
2023-05-18T09:29:01.481Z,100043.50
2023-05-18T09:34:06.503Z,100042.75
2023-05-18T09:39:11.863Z,100036.81
2023-05-18T09:44:15.218Z,100043.47
2023-05-18T09:49:23.007Z,100032.56
2023-05-18T09:54:27.342Z,100045.28
2023-05-18T09:59:31.364Z,100048.88
2023-05-18T10:04:38.821Z,100031.34
2023-05-18T10:09:44.659Z,100030.09
2023-05-18T10:14:47.886Z,100028.22
2023-05-18T10:19:55.358Z,100025.06
2023-05-18T10:25:01.954Z,100023.31
2023-05-18T10:30:09.904Z,100012.84
2023-05-18T10:35:13.372Z,100015.72
2023-05-18T10:40:18.695Z,100013.13
2023-05-18T10:45:21.982Z,100003.50
2023-05-18T10:50:25.020Z,100000.91
2023-05-18T10:55:30.918Z,100002.44
2023-05-18T11:00:38.230Z,100009.69
2023-05-18T11:05:41.909Z,100003.13
2023-05-18T11:10:47.980Z,99993.81
2023-05-18T11:16:09.830Z,99991.97
2023-05-18T11:21:51.584Z,99988.50
2023-05-18T11:26:57.653Z,99981.69
2023-05-18T11:32:01.461Z,99975.66
2023-05-18T11:37:04.574Z,99974.50
2023-05-18T11:42:10.772Z,99974.97
2023-05-18T11:47:13.734Z,99975.53
2023-05-18T11:52:21.361Z,99973.34
2023-05-18T11:57:27.641Z,99976.84
2023-05-18T12:02:33.825Z,99972.31
2023-05-18T12:07:38.844Z,99962.22
2023-05-18T12:12:43.498Z,99961.66
2023-05-18T12:17:48.182Z,99957.34
2023-05-18T12:22:53.821Z,99951.91
2023-05-18T12:27:58.486Z,99955.00
2023-05-18T12:33:02.397Z,99950.03
2023-05-18T12:38:05.574Z,99954.41
2023-05-18T12:43:09.902Z,99945.63
2023-05-18T12:48:14.912Z,99957.91
2023-05-18T12:53:19.108Z,99958.63
2023-05-18T12:58:23.404Z,99952.34
2023-05-18T13:03:26.719Z,99944.63
2023-05-18T13:08:29.910Z,99944.81
2023-05-18T13:13:34.196Z,99935.72
2023-05-18T13:18:37.217Z,99939.22
2023-05-18T13:23:40.242Z,99939.38
2023-05-18T13:28:45.259Z,99943.94
2023-05-18T13:33:48.679Z,99942.69
2023-05-18T13:38:52.444Z,99935.03
2023-05-18T13:43:56.807Z,99935.03
2023-05-18T13:48:59.708Z,99934.38
2023-05-18T13:54:02.789Z,99938.16
2023-05-18T13:59:07.048Z,99926.19
2023-05-18T14:04:09.933Z,99933.41
2023-05-18T14:09:12.833Z,99930.91
2023-05-18T14:14:17.100Z,99933.78
2023-05-18T14:19:20.048Z,99931.91
2023-05-18T14:24:23.087Z,99928.19
2023-05-18T14:29:27.419Z,99930.34
2023-05-18T14:34:30.337Z,99930.19
2023-05-18T14:39:33.309Z,99924.25
2023-05-18T14:44:37.934Z,99920.69
2023-05-18T14:49:40.954Z,99916.84
2023-05-18T14:54:44.217Z,99918.72
2023-05-18T14:59:48.562Z,99919.53
2023-05-18T15:04:51.521Z,99913.16
2023-05-18T15:09:55.331Z,99908.09
2023-05-18T15:14:59.667Z,99908.44
2023-05-18T15:20:02.642Z,99911.25
2023-05-18T15:25:07.393Z,99914.78
2023-05-18T15:30:12.772Z,99902.25
2023-05-18T15:35:16.957Z,99902.59
2023-05-18T15:40:19.985Z,99895.25
2023-05-18T15:45:24.407Z,99892.03
2023-05-18T15:50:27.439Z,99895.72
2023-05-18T15:55:30.388Z,99887.50
2023-05-18T16:00:34.674Z,99890.13
2023-05-18T16:05:37.610Z,99890.16
2023-05-18T16:10:41.437Z,99885.78
2023-05-18T16:15:46.550Z,99880.84
2023-05-18T16:20:49.549Z,99884.94
2023-05-18T16:25:52.548Z,99877.81
2023-05-18T16:30:56.802Z,99872.63
2023-05-18T16:35:59.764Z,99872.91
2023-05-18T16:41:02.782Z,99878.38
2023-05-18T16:46:07.123Z,99867.50
2023-05-18T16:51:10.095Z,99880.88
2023-05-18T16:56:13.436Z,99875.44
2023-05-18T17:01:27.231Z,99863.25
2023-05-18T17:06:31.362Z,99863.91
2023-05-18T17:11:34.352Z,99859.88
2023-05-18T17:16:40.789Z,99877.91
2023-05-18T17:21:43.756Z,99876.34
2023-05-18T17:26:46.705Z,99873.03
2023-05-18T17:31:51.046Z,99875.34
2023-05-18T17:36:54.939Z,99878.84
2023-05-18T17:42:00.049Z,99880.84
2023-05-18T17:47:04.851Z,99885.91
2023-05-18T17:52:08.351Z,99882.84
2023-05-18T17:57:11.629Z,99882.34
2023-05-18T18:02:16.108Z,99872.97
2023-05-18T18:07:19.081Z,99883.78
2023-05-18T18:12:22.004Z,99883.94
2023-05-18T18:17:26.372Z,99889.81
2023-05-18T18:22:29.407Z,99894.97
2023-05-18T18:27:32.433Z,99883.34
2023-05-18T18:32:36.819Z,99887.38
2023-05-18T18:37:39.807Z,99890.44
2023-05-18T18:42:42.714Z,99889.63
2023-05-18T18:47:47.131Z,99892.34
2023-05-18T18:52:50.186Z,99895.03
2023-05-18T18:57:53.553Z,99897.31
2023-05-18T19:02:57.967Z,99905.97
2023-05-18T19:08:01.763Z,99902.22
2023-05-18T19:13:06.219Z,99902.69
2023-05-18T19:18:10.533Z,99910.03
2023-05-18T19:23:13.488Z,99915.75
2023-05-18T19:28:16.469Z,99924.69
2023-05-18T19:33:21.241Z,99932.75
2023-05-18T19:38:24.220Z,99935.69
2023-05-18T19:43:27.145Z,99938.72
2023-05-18T19:48:31.640Z,99941.22
2023-05-18T19:53:34.774Z,99949.84
2023-05-18T19:58:37.751Z,99951.91
2023-05-18T20:03:43.519Z,99952.78
2023-05-18T20:08:46.746Z,99948.56
2023-05-18T20:13:49.809Z,99948.44
2023-05-18T20:18:54.205Z,99948.22
2023-05-18T20:23:57.128Z,99955.38
2023-05-18T20:29:00.067Z,99948.47
2023-05-18T20:34:04.386Z,99958.63
2023-05-18T20:39:07.386Z,99965.59
2023-05-18T20:44:11.205Z,99959.72
2023-05-18T20:49:15.686Z,99953.66
2023-05-18T20:54:18.946Z,99961.59
2023-05-18T20:59:21.948Z,99954.09
2023-05-18T21:04:26.259Z,99952.53
2023-05-18T21:09:31.324Z,99956.00
2023-05-18T21:14:34.273Z,99952.72
2023-05-18T21:19:38.612Z,99940.78
2023-05-18T21:24:41.578Z,99952.13
2023-05-18T21:29:44.533Z,99943.44
2023-05-18T21:34:48.824Z,99941.41
2023-05-18T21:39:51.731Z,99935.94
2023-05-18T21:44:54.960Z,99930.88
2023-05-18T21:49:59.236Z,99932.09
2023-05-18T21:55:02.419Z,99931.91
2023-05-18T22:00:06.882Z,99936.97
2023-05-18T22:05:31.177Z,99934.56
2023-05-18T22:10:34.327Z,99928.66
2023-05-18T22:15:37.558Z,99927.28
2023-05-18T22:20:41.858Z,99928.88
2023-05-18T22:25:44.989Z,99926.25
2023-05-18T22:30:48.380Z,99917.53
2023-05-18T22:35:52.717Z,99928.47
2023-05-18T22:40:55.757Z,99912.69
2023-05-18T22:45:58.947Z,99917.31
2023-05-18T22:51:04.192Z,99914.28
2023-05-18T22:56:07.869Z,99916.50
2023-05-18T23:01:10.961Z,99915.31
2023-05-18T23:06:15.264Z,99913.06
2023-05-18T23:11:18.479Z,99907.81
2023-05-18T23:16:22.685Z,99907.22
2023-05-18T23:21:27.016Z,99915.28
2023-05-18T23:26:29.913Z,99915.50
2023-05-18T23:31:32.824Z,99910.81
2023-05-18T23:36:39.718Z,99915.06
2023-05-18T23:41:43.916Z,99927.19
2023-05-18T23:46:47.383Z,99921.09
2023-05-18T23:51:53.403Z,99906.34
2023-05-18T23:56:57.038Z,99908.16
